This is the latest recevied weather packets stored in our database for station/object N1HQ. If no packets are shown the sender has not sent any weather packets the latest 1 day(s).
| Time | Temp. | Humidity | Pressure | Rain* | Wind** | Luminosity | Snow |
|---|---|---|---|---|---|---|---|
| 1777994112 | 25° C | 69% | 1014 hPa | 0 mm | 0.89 m/s, 153° | - | - |
| 1777993843 | 24.44° C | 65% | 1014.2 hPa | 0 mm | 1.34 m/s, 99° | - | - |
| 1777993561 | 24.44° C | 67% | 1014.1 hPa | 0 mm | 1.34 m/s, 88° | - | - |
| 1777993312 | 24.44° C | 69% | 1014.1 hPa | 0 mm | 1.79 m/s, 104° | - | - |
| 1777993068 | 23.89° C | 67% | 1014.1 hPa | 0 mm | 1.79 m/s, 97° | - | - |
| 1777992808 | 23.89° C | 68% | 1014.1 hPa | 0 mm | 1.34 m/s, 112° | - | - |
| 1777992515 | 23.89° C | 71% | 1014.1 hPa | 0 mm | 1.34 m/s, 108° | - | - |
| 1777992228 | 23.33° C | 70% | 1014.1 hPa | 0 mm | 1.34 m/s, 105° | - | - |
| 1777991658 | 23.33° C | 74% | 1013.9 hPa | 0 mm | 1.34 m/s, 101° | - | - |
| 1777991368 | 23.33° C | 72% | 1014 hPa | 0 mm | 1.79 m/s, 104° | - | - |
| 1777991075 | 22.78° C | 73% | 1014 hPa | 0 mm | 1.79 m/s, 143° | - | - |
| 1777990778 | 22.22° C | 73% | 1013.9 hPa | 0 mm | 1.79 m/s, 96° | - | - |
| 1777990488 | 22.22° C | 74% | 1013.8 hPa | 0 mm | 1.79 m/s, 87° | - | - |
| 1777990228 | 22.22° C | 76% | 1013.9 hPa | 0 mm | 1.34 m/s, 98° | - | - |
| 1777989978 | 21.67° C | 76% | 1013.9 hPa | 0 mm | 1.34 m/s, 95° | - | - |
| 1777989701 | 21.67° C | 79% | 1013.9 hPa | 0 mm | 1.34 m/s, 98° | - | - |
| 1777989458 | 21.11° C | 81% | 1013.8 hPa | 0 mm | 1.79 m/s, 100° | - | - |
| 1777989208 | 21.11° C | 79% | 1013.8 hPa | 0 mm | 1.79 m/s, 89° | - | - |
| 1777988908 | 20.56° C | 81% | 1013.9 hPa | 0 mm | 1.79 m/s, 133° | - | - |
| 1777988661 | 20.56° C | 82% | 1013.9 hPa | 0 mm | 1.79 m/s, 71° | - | - |
| 1777988088 | 20° C | 84% | 1013.7 hPa | 0 mm | 0.45 m/s, 111° | - | - |
| 1777987812 | 20° C | 85% | 1013.7 hPa | 0 mm | 0.45 m/s, 69° | - | - |
| 1777987513 | 19.44° C | 86% | 1013.7 hPa | 0 mm | 0.45 m/s, 84° | - | - |
| 1777987232 | 19.44° C | 87% | 1013.7 hPa | 0 mm | 0.45 m/s, 82° | - | - |
| 1777986949 | 18.89° C | 88% | 1013.8 hPa | 0 mm | 0.89 m/s, 84° | - | - |
* Rain latest hour (hover to see other rain measurements)
** Current wind speed in m/s (hover to see current wind gust speed)